sensor_id;sensor_type;location;lat;lon;timestamp;P1;durP1;ratioP1;P2;durP2;ratioP2
61739;SDS011;47645;45.288;12.038;2023-12-28T00:01:54;110.3;;;65.1;;
61739;SDS011;47645;45.288;12.038;2023-12-28T00:11:54;109.4;;;65.7;;
61739;SDS011;47645;45.288;12.038;2023-12-28T00:21:55;110.5;;;66.5;;
61739;SDS011;47645;45.288;12.038;2023-12-28T00:31:55;87.1;;;53.2;;
61739;SDS011;47645;45.288;12.038;2023-12-28T00:41:56;77.2;;;47.7;;
61739;SDS011;47645;45.288;12.038;2023-12-28T00:51:56;104.3;;;64.2;;
61739;SDS011;47645;45.288;12.038;2023-12-28T01:01:57;99.9;;;61.8;;
61739;SDS011;47645;45.288;12.038;2023-12-28T01:11:58;89.1;;;55.6;;
61739;SDS011;47645;45.288;12.038;2023-12-28T01:21:58;77.1;;;49.3;;
61739;SDS011;47645;45.288;12.038;2023-12-28T01:31:59;81.4;;;51.5;;
61739;SDS011;47645;45.288;12.038;2023-12-28T01:41:59;98.3;;;59.4;;
61739;SDS011;47645;45.288;12.038;2023-12-28T01:52:00;80.8;;;51.3;;
61739;SDS011;47645;45.288;12.038;2023-12-28T02:02:00;80.5;;;51.9;;
61739;SDS011;47645;45.288;12.038;2023-12-28T02:12:01;79.8;;;51.2;;
61739;SDS011;47645;45.288;12.038;2023-12-28T02:22:01;86.8;;;53.1;;
61739;SDS011;47645;45.288;12.038;2023-12-28T02:32:02;78.4;;;48.1;;
61739;SDS011;47645;45.288;12.038;2023-12-28T02:42:02;71.3;;;44.1;;
61739;SDS011;47645;45.288;12.038;2023-12-28T02:52:03;65.7;;;42.4;;
61739;SDS011;47645;45.288;12.038;2023-12-28T03:02:03;73.0;;;43.5;;
61739;SDS011;47645;45.288;12.038;2023-12-28T03:12:04;77.0;;;47.3;;
61739;SDS011;47645;45.288;12.038;2023-12-28T03:22:04;76.9;;;48.0;;
61739;SDS011;47645;45.288;12.038;2023-12-28T03:32:05;76.4;;;48.1;;
61739;SDS011;47645;45.288;12.038;2023-12-28T03:42:06;89.4;;;55.8;;
61739;SDS011;47645;45.288;12.038;2023-12-28T03:52:06;77.0;;;49.6;;
61739;SDS011;47645;45.288;12.038;2023-12-28T04:02:06;75.1;;;49.6;;
61739;SDS011;47645;45.288;12.038;2023-12-28T04:12:07;77.6;;;50.9;;
61739;SDS011;47645;45.288;12.038;2023-12-28T04:22:08;83.1;;;52.0;;
61739;SDS011;47645;45.288;12.038;2023-12-28T04:32:08;80.9;;;52.1;;
61739;SDS011;47645;45.288;12.038;2023-12-28T04:42:08;76.1;;;50.5;;
61739;SDS011;47645;45.288;12.038;2023-12-28T04:52:09;80.1;;;52.6;;
61739;SDS011;47645;45.288;12.038;2023-12-28T05:02:09;72.0;;;46.6;;
61739;SDS011;47645;45.288;12.038;2023-12-28T05:12:10;70.6;;;46.7;;
61739;SDS011;47645;45.288;12.038;2023-12-28T05:22:11;63.7;;;42.6;;
61739;SDS011;47645;45.288;12.038;2023-12-28T05:32:11;88.4;;;56.3;;
61739;SDS011;47645;45.288;12.038;2023-12-28T05:42:11;68.5;;;43.9;;
61739;SDS011;47645;45.288;12.038;2023-12-28T05:52:15;86.1;;;54.1;;
61739;SDS011;47645;45.288;12.038;2023-12-28T06:02:12;90.4;;;57.1;;
61739;SDS011;47645;45.288;12.038;2023-12-28T06:12:13;81.5;;;51.2;;
61739;SDS011;47645;45.288;12.038;2023-12-28T06:22:13;87.2;;;54.1;;
61739;SDS011;47645;45.288;12.038;2023-12-28T06:32:14;85.8;;;52.8;;
61739;SDS011;47645;45.288;12.038;2023-12-28T06:42:14;87.7;;;54.5;;
61739;SDS011;47645;45.288;12.038;2023-12-28T06:52:15;94.4;;;59.3;;
61739;SDS011;47645;45.288;12.038;2023-12-28T07:02:15;92.5;;;55.4;;
61739;SDS011;47645;45.288;12.038;2023-12-28T07:12:16;68.6;;;43.0;;
61739;SDS011;47645;45.288;12.038;2023-12-28T07:22:16;82.2;;;52.1;;
61739;SDS011;47645;45.288;12.038;2023-12-28T07:32:17;97.0;;;58.6;;
61739;SDS011;47645;45.288;12.038;2023-12-28T07:42:17;99.2;;;61.3;;
61739;SDS011;47645;45.288;12.038;2023-12-28T07:52:18;98.8;;;58.7;;
61739;SDS011;47645;45.288;12.038;2023-12-28T08:02:18;102.1;;;61.4;;
61739;SDS011;47645;45.288;12.038;2023-12-28T08:12:21;107.2;;;63.0;;
61739;SDS011;47645;45.288;12.038;2023-12-28T08:22:20;102.1;;;61.9;;
61739;SDS011;47645;45.288;12.038;2023-12-28T08:32:20;109.4;;;67.5;;
61739;SDS011;47645;45.288;12.038;2023-12-28T08:42:20;116.5;;;68.3;;
61739;SDS011;47645;45.288;12.038;2023-12-28T08:52:21;116.7;;;68.4;;
61739;SDS011;47645;45.288;12.038;2023-12-28T09:02:21;116.1;;;69.4;;
61739;SDS011;47645;45.288;12.038;2023-12-28T09:12:22;117.2;;;70.1;;
61739;SDS011;47645;45.288;12.038;2023-12-28T09:22:23;112.6;;;69.4;;
61739;SDS011;47645;45.288;12.038;2023-12-28T09:32:23;111.0;;;66.8;;
61739;SDS011;47645;45.288;12.038;2023-12-28T09:42:25;113.4;;;65.9;;
61739;SDS011;47645;45.288;12.038;2023-12-28T09:52:24;101.0;;;64.3;;
61739;SDS011;47645;45.288;12.038;2023-12-28T10:02:25;95.3;;;59.7;;
61739;SDS011;47645;45.288;12.038;2023-12-28T10:12:28;83.2;;;50.0;;
61739;SDS011;47645;45.288;12.038;2023-12-28T10:22:26;80.3;;;49.5;;
61739;SDS011;47645;45.288;12.038;2023-12-28T10:32:27;78.9;;;49.8;;
61739;SDS011;47645;45.288;12.038;2023-12-28T10:42:28;73.9;;;48.1;;
61739;SDS011;47645;45.288;12.038;2023-12-28T10:52:28;78.2;;;46.5;;
61739;SDS011;47645;45.288;12.038;2023-12-28T11:02:31;67.4;;;44.6;;
61739;SDS011;47645;45.288;12.038;2023-12-28T11:12:29;62.0;;;40.0;;
61739;SDS011;47645;45.288;12.038;2023-12-28T11:22:30;62.0;;;39.7;;
61739;SDS011;47645;45.288;12.038;2023-12-28T11:32:32;54.6;;;38.1;;
61739;SDS011;47645;45.288;12.038;2023-12-28T11:42:32;48.6;;;31.9;;
61739;SDS011;47645;45.288;12.038;2023-12-28T11:52:32;45.6;;;30.8;;
61739;SDS011;47645;45.288;12.038;2023-12-28T12:02:34;45.8;;;30.9;;
61739;SDS011;47645;45.288;12.038;2023-12-28T12:12:34;45.1;;;29.6;;
61739;SDS011;47645;45.288;12.038;2023-12-28T12:22:35;45.9;;;30.9;;
61739;SDS011;47645;45.288;12.038;2023-12-28T12:32:37;49.1;;;31.9;;
61739;SDS011;47645;45.288;12.038;2023-12-28T12:42:36;50.4;;;32.6;;
61739;SDS011;47645;45.288;12.038;2023-12-28T12:52:37;43.7;;;31.8;;
61739;SDS011;47645;45.288;12.038;2023-12-28T13:02:38;46.4;;;31.5;;
61739;SDS011;47645;45.288;12.038;2023-12-28T13:12:38;47.2;;;31.1;;
61739;SDS011;47645;45.288;12.038;2023-12-28T13:22:39;50.3;;;31.4;;
61739;SDS011;47645;45.288;12.038;2023-12-28T13:32:40;51.0;;;33.2;;
61739;SDS011;47645;45.288;12.038;2023-12-28T13:42:40;54.1;;;35.2;;
61739;SDS011;47645;45.288;12.038;2023-12-28T13:52:41;52.5;;;35.2;;
61739;SDS011;47645;45.288;12.038;2023-12-28T14:02:42;63.6;;;42.5;;
61739;SDS011;47645;45.288;12.038;2023-12-28T14:12:43;74.1;;;49.4;;
61739;SDS011;47645;45.288;12.038;2023-12-28T14:22:44;76.8;;;53.2;;
61739;SDS011;47645;45.288;12.038;2023-12-28T14:32:44;85.4;;;54.4;;
61739;SDS011;47645;45.288;12.038;2023-12-28T14:42:45;84.1;;;55.2;;
61739;SDS011;47645;45.288;12.038;2023-12-28T14:52:46;78.0;;;51.0;;
61739;SDS011;47645;45.288;12.038;2023-12-28T15:02:46;81.9;;;51.7;;
61739;SDS011;47645;45.288;12.038;2023-12-28T15:12:47;76.8;;;49.0;;
61739;SDS011;47645;45.288;12.038;2023-12-28T15:22:48;71.9;;;46.7;;
61739;SDS011;47645;45.288;12.038;2023-12-28T15:32:48;79.6;;;50.3;;
61739;SDS011;47645;45.288;12.038;2023-12-28T15:42:49;58.8;;;38.7;;
61739;SDS011;47645;45.288;12.038;2023-12-28T15:52:50;69.9;;;44.0;;
61739;SDS011;47645;45.288;12.038;2023-12-28T16:02:50;58.3;;;37.5;;
61739;SDS011;47645;45.288;12.038;2023-12-28T16:12:51;54.2;;;34.5;;
61739;SDS011;47645;45.288;12.038;2023-12-28T16:22:52;56.8;;;34.8;;
61739;SDS011;47645;45.288;12.038;2023-12-28T16:32:52;60.0;;;38.2;;
61739;SDS011;47645;45.288;12.038;2023-12-28T16:42:53;67.6;;;41.3;;
61739;SDS011;47645;45.288;12.038;2023-12-28T16:52:54;88.8;;;54.2;;
61739;SDS011;47645;45.288;12.038;2023-12-28T17:02:54;92.4;;;53.0;;
61739;SDS011;47645;45.288;12.038;2023-12-28T17:12:55;78.3;;;47.5;;
61739;SDS011;47645;45.288;12.038;2023-12-28T17:22:59;82.5;;;49.9;;
61739;SDS011;47645;45.288;12.038;2023-12-28T17:32:57;75.0;;;47.3;;
61739;SDS011;47645;45.288;12.038;2023-12-28T17:42:57;100.9;;;60.5;;
61739;SDS011;47645;45.288;12.038;2023-12-28T17:52:57;73.6;;;48.3;;
61739;SDS011;47645;45.288;12.038;2023-12-28T18:02:57;83.8;;;50.4;;
61739;SDS011;47645;45.288;12.038;2023-12-28T18:12:58;87.0;;;51.7;;
61739;SDS011;47645;45.288;12.038;2023-12-28T18:22:59;81.9;;;52.0;;
61739;SDS011;47645;45.288;12.038;2023-12-28T18:33:00;78.4;;;50.8;;
61739;SDS011;47645;45.288;12.038;2023-12-28T18:43:00;76.9;;;49.7;;
61739;SDS011;47645;45.288;12.038;2023-12-28T18:53:00;80.2;;;50.5;;
61739;SDS011;47645;45.288;12.038;2023-12-28T19:03:01;99.1;;;62.2;;
61739;SDS011;47645;45.288;12.038;2023-12-28T19:13:02;93.5;;;57.5;;
61739;SDS011;47645;45.288;12.038;2023-12-28T19:23:02;87.3;;;55.4;;
61739;SDS011;47645;45.288;12.038;2023-12-28T19:33:03;75.1;;;48.1;;
61739;SDS011;47645;45.288;12.038;2023-12-28T19:43:03;70.6;;;46.1;;
61739;SDS011;47645;45.288;12.038;2023-12-28T19:53:05;67.3;;;42.1;;
61739;SDS011;47645;45.288;12.038;2023-12-28T20:03:04;57.6;;;38.9;;
61739;SDS011;47645;45.288;12.038;2023-12-28T20:13:05;58.3;;;38.8;;
61739;SDS011;47645;45.288;12.038;2023-12-28T20:23:06;51.7;;;34.7;;
61739;SDS011;47645;45.288;12.038;2023-12-28T20:33:07;50.7;;;33.7;;
61739;SDS011;47645;45.288;12.038;2023-12-28T20:43:07;73.5;;;47.3;;
61739;SDS011;47645;45.288;12.038;2023-12-28T20:53:08;81.0;;;51.4;;
61739;SDS011;47645;45.288;12.038;2023-12-28T21:03:08;56.7;;;38.1;;
61739;SDS011;47645;45.288;12.038;2023-12-28T21:13:17;57.8;;;37.1;;
61739;SDS011;47645;45.288;12.038;2023-12-28T21:23:09;65.3;;;41.2;;
61739;SDS011;47645;45.288;12.038;2023-12-28T21:33:10;49.2;;;33.4;;
61739;SDS011;47645;45.288;12.038;2023-12-28T21:43:11;49.6;;;33.5;;
61739;SDS011;47645;45.288;12.038;2023-12-28T21:53:12;60.7;;;38.1;;
61739;SDS011;47645;45.288;12.038;2023-12-28T22:03:12;49.4;;;33.6;;
61739;SDS011;47645;45.288;12.038;2023-12-28T22:13:12;58.8;;;38.5;;
61739;SDS011;47645;45.288;12.038;2023-12-28T22:23:13;49.7;;;33.2;;
61739;SDS011;47645;45.288;12.038;2023-12-28T22:33:13;66.9;;;42.0;;
61739;SDS011;47645;45.288;12.038;2023-12-28T22:43:15;61.4;;;39.6;;
61739;SDS011;47645;45.288;12.038;2023-12-28T22:53:14;67.9;;;44.9;;
61739;SDS011;47645;45.288;12.038;2023-12-28T23:03:15;69.5;;;43.6;;
61739;SDS011;47645;45.288;12.038;2023-12-28T23:13:16;67.5;;;44.0;;
61739;SDS011;47645;45.288;12.038;2023-12-28T23:23:17;70.9;;;45.1;;
61739;SDS011;47645;45.288;12.038;2023-12-28T23:33:17;84.4;;;52.7;;
61739;SDS011;47645;45.288;12.038;2023-12-28T23:43:18;62.8;;;40.2;;
61739;SDS011;47645;45.288;12.038;2023-12-28T23:53:18;62.3;;;39.6;;
